This is the latest recevied weather packets stored in our database for station/object R1CBW-13. If no packets are shown the sender has not sent any weather packets the latest 10 day(s).
| Time | Temp. | Humidity | Pressure | Rain* | Wind** | Luminosity | Snow |
|---|---|---|---|---|---|---|---|
| 1777010915 | 5° C | 61% | 1000.8 hPa | 0 mm | - | - | - |
| 1777010855 | 4.44° C | 62% | 1000.9 hPa | 0 mm | - | - | - |
| 1777010795 | 5° C | 61% | 1000.9 hPa | 0 mm | - | - | - |
| 1777010735 | 5° C | 61% | 1000.9 hPa | 0 mm | - | - | - |
| 1777010675 | 4.44° C | 61% | 1000.9 hPa | 0 mm | - | - | - |
| 1777010615 | 5.56° C | 57% | 1001 hPa | 0 mm | - | - | - |
| 1777010555 | 5.56° C | 57% | 1000.8 hPa | 0 mm | - | - | - |
| 1777010495 | 6.67° C | 56% | 1000.8 hPa | 0 mm | - | - | - |
| 1777010435 | 5.56° C | 58% | 1000.8 hPa | 0 mm | - | - | - |
| 1777010375 | 5° C | 60% | 1000.9 hPa | 0 mm | - | - | - |
| 1777010315 | 5.56° C | 58% | 1000.9 hPa | 0 mm | - | - | - |
| 1777010255 | 5.56° C | 58% | 1000.9 hPa | 0 mm | - | - | - |
| 1777010195 | 5.56° C | 58% | 1000.8 hPa | 0 mm | - | - | - |
| 1777010135 | 5.56° C | 59% | 1000.9 hPa | 0 mm | - | - | - |
| 1777010075 | 5.56° C | 60% | 1000.8 hPa | 0 mm | - | - | - |
| 1777010015 | 4.44° C | 62% | 1000.9 hPa | 0 mm | - | - | - |
| 1777009955 | 4.44° C | 61% | 1001 hPa | 0 mm | - | - | - |
| 1777009895 | 5° C | 60% | 1001 hPa | 0 mm | - | - | - |
| 1777009835 | 5.56° C | 57% | 1001.1 hPa | 0 mm | - | - | - |
| 1777009775 | 6.11° C | 57% | 1001 hPa | 0 mm | - | - | - |
| 1777009715 | 6.11° C | 58% | 1001 hPa | 0 mm | - | - | - |
| 1777009655 | 5.56° C | 59% | 1001 hPa | 0 mm | - | - | - |
| 1777009595 | 5.56° C | 59% | 1001 hPa | 0 mm | - | - | - |
| 1777009534 | 5° C | 60% | 1001 hPa | 0 mm | - | - | - |
| 1777009475 | 5° C | 60% | 1001 hPa | 0 mm | - | - | - |
* Rain latest hour (hover to see other rain measurements)
** Current wind speed in m/s (hover to see current wind gust speed)